Terminal Aerodrome Forecast
Issued by NWS

Home | Current Version | Previous Version | Text Only | Print | Product List | Glossary On
Versions: 1 2 3 4 5 6 7 8 9 10 11 12 13 14
000
FTUS46 KOTX 231130
TAFMWH
TAF
KMWH 231130Z 2312/2412 01005KT P6SM SCT060 BKN100 OVC200
     FM231700 04004KT 5SM -SNRA OVC025
     FM232000 07005KT 6SM -RA BR OVC015
     FM240200 13005KT 5SM -RA BR BKN008 OVC015
     FM240800 13006KT 6SM -RA BR OVC008=

USA.gov is the U.S. government's official web portal to all federal, state and local government web resources and services.